Time;durP1;ratioP1;P1;durP2;ratioP2;P2;SDS_P1;SDS_P2;PMS_P1;PMS_P2;Temp;Humidity;BMP_temperature;BMP_pressure;BME280_temperature;BME280_humidity;BME280_pressure;Samples;Min_cycle;Max_cycle;Signal;HPM_P1;HPM_P2
2023/07/22 05:52:01;;;;;;;8.93;2.50;;;;;;;24.34;100.00;101354.75;2494140;23;1422112;-66
2023/07/22 05:53:02;;;;;;;7.00;2.70;;;;;;;24.32;100.00;101340.34;2532088;23;20641;-66
2023/07/22 05:54:02;;;;;;;7.47;2.47;;;;;;;23.99;100.00;101275.06;2532290;23;20667;-65
2023/07/22 05:55:04;;;;;;;6.07;2.40;;;;;;;23.85;100.00;101253.41;2531930;23;20322;-66
2023/07/22 05:56:05;;;;;;;8.13;2.73;;;;;;;24.38;100.00;101322.06;2531834;23;20592;-65
2023/07/22 05:57:05;;;;;;;7.00;2.60;;;;;;;23.92;100.00;101262.19;2526908;23;20784;-65
2023/07/22 05:58:06;;;;;;;6.87;2.70;;;;;;;24.31;100.00;101316.13;2517461;23;20686;-64
2023/07/22 05:59:07;;;;;;;7.33;2.57;;;;;;;24.36;100.00;101340.88;2518688;23;20491;-64
2023/07/22 06:00:08;;;;;;;7.27;2.47;;;;;;;23.86;100.00;101286.84;2518827;23;20703;-63
2023/07/22 06:01:09;;;;;;;6.03;2.47;;;;;;;24.11;100.00;101333.31;2531828;23;20512;-63
2023/07/22 06:02:13;;;;;;;6.67;2.83;;;;;;;23.74;100.00;101281.66;2531811;23;20181;-63
2023/07/22 06:03:13;;;;;;;7.67;3.27;;;;;;;23.97;100.00;101298.25;2518718;23;20288;-63
2023/07/22 06:04:14;;;;;;;8.73;3.00;;;;;;;24.49;100.00;101352.47;2519393;23;20631;-65
2023/07/22 06:05:14;;;;;;;8.73;2.70;;;;;;;24.50;100.00;101332.13;2532030;23;20209;-64
2023/07/22 06:06:15;;;;;;;5.27;2.33;;;;;;;24.48;100.00;101328.28;2530241;23;20154;-64
2023/07/22 06:07:15;;;;;;;8.30;2.60;;;;;;;24.53;100.00;101322.63;2532105;23;20150;-64
2023/07/22 06:08:15;;;;;;;5.73;2.50;;;;;;;24.59;100.00;101311.31;2532867;23;20158;-63
2023/07/22 06:09:16;;;;;;;10.07;3.37;;;;;;;24.65;100.00;101304.38;2532725;23;20169;-64
2023/07/22 06:10:16;;;;;;;5.73;2.83;;;;;;;24.76;100.00;101300.75;2532977;23;20154;-64
2023/07/22 06:11:17;;;;;;;8.00;2.57;;;;;;;24.88;100.00;101288.91;2532830;23;20162;-64
2023/07/22 06:12:17;;;;;;;7.63;2.57;;;;;;;24.80;100.00;101262.38;2532974;23;20233;-65
2023/07/22 06:13:18;;;;;;;4.57;2.43;;;;;;;25.06;100.00;101282.72;2533094;23;20154;-64
2023/07/22 06:14:18;;;;;;;6.27;2.70;;;;;;;25.15;100.00;101293.81;2520196;23;20509;-65
2023/07/22 06:15:19;;;;;;;8.00;2.50;;;;;;;25.18;100.00;101284.25;2520196;23;20593;-64
2023/07/22 06:16:19;;;;;;;7.00;2.70;;;;;;;25.22;100.00;101298.19;2532485;23;20154;-64
2023/07/22 06:17:20;;;;;;;6.50;2.80;;;;;;;25.00;100.00;101252.81;2532119;23;20238;-64
2023/07/22 06:18:21;;;;;;;5.87;2.60;;;;;;;25.04;100.00;101256.19;2532108;23;20155;-65
2023/07/22 06:19:23;;;;;;;7.50;2.77;;;;;;;25.36;100.00;101295.09;2532776;23;20174;-64
2023/07/22 06:20:23;;;;;;;7.57;2.53;;;;;;;25.44;100.00;101289.69;2532948;23;20158;-64
2023/07/22 06:21:24;;;;;;;5.43;2.73;;;;;;;25.23;100.00;101238.09;2533025;23;20623;-64
2023/07/22 06:22:24;;;;;;;7.37;2.70;;;;;;;25.40;100.00;101255.91;2533040;23;20655;-64
2023/07/22 06:23:25;;;;;;;7.83;2.80;;;;;;;25.58;100.00;101246.78;2532831;23;20158;-64
2023/07/22 06:24:25;;;;;;;8.23;2.60;;;;;;;25.60;100.00;101232.09;2532916;23;20155;-65
2023/07/22 06:25:25;;;;;;;6.40;2.57;;;;;;;25.72;100.00;101231.53;2533088;23;20146;-65
2023/07/22 06:26:26;;;;;;;7.07;2.53;;;;;;;25.80;100.00;101215.47;2533047;23;20178;-64
2023/07/22 06:27:26;;;;;;;8.37;2.50;;;;;;;25.78;100.00;101214.44;2533108;23;20150;-64
2023/07/22 06:28:27;;;;;;;7.70;2.83;;;;;;;25.81;100.00;101213.41;2533164;23;20233;-64
2023/07/22 06:29:27;;;;;;;6.40;2.63;;;;;;;25.25;100.00;101118.44;2520253;23;20158;-65
2023/07/22 06:30:27;;;;;;;6.80;2.23;;;;;;;25.88;100.00;101222.16;2520600;23;20162;-65
2023/07/22 06:31:30;;;;;;;6.30;2.40;;;;;;;25.96;100.00;101220.34;2533166;23;20565;-64
2023/07/22 06:32:30;;;;;;;6.33;2.50;;;;;;;25.56;100.00;101152.13;2533238;23;20648;-65
2023/07/22 06:33:31;;;;;;;5.10;2.37;;;;;;;25.98;100.00;101217.75;2533428;23;20551;-65
2023/07/22 06:34:31;;;;;;;9.43;2.60;;;;;;;26.06;100.00;101212.28;2533427;23;20178;-65
2023/07/22 06:35:32;;;;;;;6.93;2.40;;;;;;;26.04;100.00;101203.50;2520627;23;20182;-65
2023/07/22 06:36:32;;;;;;;6.73;2.67;;;;;;;25.84;100.00;101164.09;2520581;23;20154;-65
2023/07/22 06:37:33;;;;;;;5.53;2.40;;;;;;;26.16;100.00;101191.53;2533133;23;20154;-65
2023/07/22 06:38:34;;;;;;;8.87;3.00;;;;;;;26.20;100.00;101191.28;2533400;23;20233;-64
2023/07/22 06:39:34;;;;;;;6.93;2.33;;;;;;;26.17;100.00;101175.28;2532442;23;20151;-64
2023/07/22 06:40:35;;;;;;;6.37;2.80;;;;;;;26.22;100.00;101180.94;2533175;23;20193;-64
2023/07/22 06:41:35;;;;;;;5.13;2.40;;;;;;;26.08;100.00;101150.81;2533459;23;20177;-65
2023/07/22 06:42:36;;;;;;;7.37;2.70;;;;;;;26.35;100.00;101180.31;2533425;23;20150;-65
2023/07/22 06:43:36;;;;;;;5.17;2.77;;;;;;;26.42;100.00;101172.00;2533261;23;20155;-64
2023/07/22 06:44:36;;;;;;;6.07;2.40;;;;;;;26.46;100.00;101172.44;2533276;23;20151;-64
2023/07/22 06:45:37;;;;;;;5.43;2.35;;;;;;;26.48;100.00;101164.19;2533380;23;20181;-65
2023/07/22 06:46:37;;;;;;;7.97;2.60;;;;;;;26.50;100.00;101160.78;2533090;23;20268;-65
2023/07/22 06:47:38;;;;;;;7.33;2.23;;;;;;;26.54;100.00;101159.22;2532950;23;20157;-64
2023/07/22 06:48:38;;;;;;;6.77;3.00;;;;;;;26.60;100.00;101154.28;2533191;23;20158;-65
2023/07/22 06:49:39;;;;;;;7.25;2.50;;;;;;;26.32;100.00;101105.44;2533419;23;20511;-65
2023/07/22 06:50:39;;;;;;;5.37;2.40;;;;;;;26.73;100.00;101153.63;2533310;23;20624;-65
2023/07/22 06:51:39;;;;;;;6.22;2.30;;;;;;;26.28;100.00;101073.69;2533380;23;20186;-64
2023/07/22 06:52:40;;;;;;;7.20;2.13;;;;;;;26.86;100.00;101157.38;2533045;23;20194;-64
2023/07/22 06:53:40;;;;;;;7.00;2.70;;;;;;;26.65;100.00;101127.09;2533292;23;20504;-64
2023/07/22 06:54:41;;;;;;;6.47;2.50;;;;;;;26.65;100.00;101133.56;2533108;23;20177;-64
2023/07/22 06:56:01;;;;;;;8.35;2.33;;;;;;;27.05;100.00;101171.66;2533082;23;20178;-64
2023/07/22 06:57:02;;;;;;;7.07;2.65;;;;;;;27.13;100.00;101169.78;2532124;23;20154;-65
2023/07/22 06:58:02;;;;;;;6.05;2.50;;;;;;;26.68;100.00;101106.13;2533124;23;20217;-64
2023/07/22 06:59:03;;;;;;;6.85;2.20;;;;;;;27.19;100.00;101176.19;2532927;23;20185;-65
2023/07/22 07:00:05;;;;;;;8.45;2.72;;;;;;;27.22;100.00;101177.97;2520206;23;20159;-64
2023/07/22 07:01:05;;;;;;;6.28;2.45;;;;;;;27.33;100.00;101178.59;2520401;23;20547;-65
2023/07/22 07:02:06;;;;;;;7.87;2.53;;;;;;;27.35;100.00;101172.38;2533346;23;20151;-64
2023/07/22 07:03:06;;;;;;;5.17;2.07;;;;;;;27.42;100.00;101158.31;2533640;23;20601;-64
2023/07/22 07:04:07;;;;;;;8.10;2.70;;;;;;;27.44;100.00;101161.38;2533887;23;20155;-64
2023/07/22 07:05:07;;;;;;;4.23;2.27;;;;;;;27.50;100.00;101156.41;2533570;23;20179;-65
2023/07/22 07:06:07;;;;;;;4.87;2.23;;;;;;;27.39;100.00;101139.44;2533457;23;20233;-64
2023/07/22 07:07:08;;;;;;;5.70;2.20;;;;;;;27.54;100.00;101164.66;2532302;23;20155;-64
2023/07/22 07:08:10;;;;;;;5.93;2.10;;;;;;;27.52;100.00;101167.25;2518738;23;20190;-64
2023/07/22 07:09:10;;;;;;;4.80;2.30;;;;;;;27.59;100.00;101164.56;2520209;23;20242;-64
2023/07/22 07:10:11;;;;;;;6.00;2.27;;;;;;;27.60;100.00;101160.44;2533303;23;20609;-65
2023/07/22 07:11:11;;;;;;;7.15;2.20;;;;;;;27.73;100.00;101171.13;2533223;23;20617;-64
2023/07/22 07:12:11;;;;;;;6.82;2.30;;;;;;;27.70;100.00;101161.59;2533277;23;20275;-64
2023/07/22 07:13:12;;;;;;;6.20;2.10;;;;;;;27.84;100.00;101174.59;2519885;23;20155;-65
2023/07/22 07:14:12;;;;;;;5.87;2.30;;;;;;;27.93;100.00;101185.63;2520016;23;20163;-65
2023/07/22 07:15:13;;;;;;;8.85;2.95;;;;;;;27.94;100.00;101177.84;2532133;23;20189;-65
2023/07/22 07:16:28;;;;;;;7.93;2.30;;;;;;;28.05;100.00;101183.38;2532745;23;20609;-65
2023/07/22 07:17:29;;;;;;;5.97;2.22;;;;;;;28.10;100.00;101186.13;2532051;23;20149;-65
2023/07/22 07:18:29;;;;;;;5.93;1.92;;;;;;;28.09;100.00;101186.69;2533320;23;20150;-64
2023/07/22 07:19:30;;;;;;;7.40;2.38;;;;;;;28.14;100.00;101208.63;2533065;23;20157;-64
2023/07/22 07:20:30;;;;;;;5.22;2.17;;;;;;;28.15;100.00;101198.78;2533132;23;20596;-65
2023/07/22 07:21:31;;;;;;;7.03;2.42;;;;;;;28.18;100.00;101192.75;2533195;23;20269;-65
2023/07/22 07:22:31;;;;;;;5.35;2.17;;;;;;;28.05;100.00;101161.34;2520456;23;20174;-65
2023/07/22 07:23:32;;;;;;;6.90;2.10;;;;;;;27.98;100.00;101139.19;2519701;23;20558;-64
2023/07/22 07:24:32;;;;;;;5.50;2.10;;;;;;;27.84;100.00;101114.03;2532521;23;20154;-64
2023/07/22 07:25:32;;;;;;;7.32;2.20;;;;;;;28.41;100.00;101196.06;2533004;23;20516;-65
2023/07/22 07:26:33;;;;;;;7.13;2.08;;;;;;;28.50;100.00;101195.66;2533335;23;20154;-65
2023/07/22 07:27:33;;;;;;;5.90;2.33;;;;;;;28.61;100.00;101204.78;2532545;23;20190;-66
2023/07/22 07:28:34;;;;;;;5.95;2.08;;;;;;;28.71;100.00;101202.31;2533098;23;20502;-65
2023/07/22 07:29:34;;;;;;;9.30;2.28;;;;;;;28.38;100.00;101140.91;2532683;23;20150;-65
2023/07/22 07:30:35;;;;;;;8.98;2.42;;;;;;;28.46;100.00;101146.72;2533116;23;20253;-66
2023/07/22 07:31:35;;;;;;;6.47;2.05;;;;;;;28.87;100.00;101198.38;2533423;23;20174;-65
2023/07/22 07:32:36;;;;;;;7.15;2.40;;;;;;;28.81;100.00;101192.75;2533001;23;20161;-66
2023/07/22 07:33:36;;;;;;;4.72;1.90;;;;;;;28.92;100.00;101206.81;2531698;23;20158;-65
2023/07/22 07:34:37;;;;;;;6.07;2.05;;;;;;;28.99;100.00;101205.44;2532744;23;20155;-65
2023/07/22 07:35:37;;;;;;;5.97;1.80;;;;;;;28.97;100.00;101205.97;2532767;23;20178;-64
2023/07/22 07:36:38;;;;;;;6.20;2.25;;;;;;;28.05;100.00;101060.88;2533214;23;20177;-65
2023/07/22 07:37:38;;;;;;;6.28;2.30;;;;;;;28.97;100.00;101205.97;2532860;23;20520;-65
2023/07/22 07:38:38;;;;;;;6.47;2.33;;;;;;;28.99;100.00;101202.59;2532768;23;20154;-66
2023/07/22 07:39:39;;;;;;;4.35;1.60;;;;;;;29.00;100.00;101201.25;2533203;23;20150;-65
2023/07/22 07:40:39;;;;;;;6.22;1.90;;;;;;;28.94;100.00;101186.31;2533152;23;20158;-65
2023/07/22 07:41:40;;;;;;;6.53;2.20;;;;;;;29.10;100.00;101205.22;2533090;23;20257;-65
2023/07/22 07:42:40;;;;;;;6.10;2.20;;;;;;;29.07;100.00;101201.38;2533267;23;20177;-65
2023/07/22 07:43:42;;;;;;;6.28;2.22;;;;;;;29.16;100.00;101200.97;2533250;23;20623;-66
2023/07/22 07:44:42;;;;;;;5.93;2.10;;;;;;;29.24;100.00;101201.84;2532871;23;20676;-65
2023/07/22 07:45:42;;;;;;;8.70;2.35;;;;;;;29.01;100.00;101151.47;2532495;23;20497;-65
2023/07/22 07:46:43;;;;;;;7.78;2.47;;;;;;;29.40;100.00;101200.75;2532955;23;20207;-65
2023/07/22 07:47:43;;;;;;;7.88;2.00;;;;;;;29.39;100.00;101204.16;2532436;23;20154;-65
2023/07/22 07:48:45;;;;;;;5.38;2.35;;;;;;;29.42;100.00;101200.97;2532839;23;20163;-65
2023/07/22 07:49:46;;;;;;;6.53;2.10;;;;;;;29.41;100.00;101212.94;2532070;23;20150;-65
2023/07/22 07:50:46;;;;;;;7.25;2.45;;;;;;;29.43;100.00;101211.06;2531889;23;20154;-65
2023/07/22 07:51:47;;;;;;;5.43;2.45;;;;;;;29.39;100.00;101216.34;2532571;23;20615;-65
2023/07/22 07:52:47;;;;;;;4.47;2.10;;;;;;;29.41;100.00;101198.66;2532165;23;20644;-66
2023/07/22 07:53:49;;;;;;;5.85;2.80;;;;;;;29.44;100.00;101194.72;2519904;23;20154;-65
2023/07/22 07:54:49;;;;;;;6.72;2.60;;;;;;;29.26;100.00;101167.81;2519721;23;20175;-66
2023/07/22 07:55:50;;;;;;;7.97;2.63;;;;;;;29.53;100.00;101200.72;2532472;23;20178;-66
2023/07/22 07:56:50;;;;;;;5.15;2.20;;;;;;;29.49;100.00;101194.56;2532979;23;20231;-65
2023/07/22 07:57:51;;;;;;;4.65;2.17;;;;;;;29.31;100.00;101172.63;2532944;23;20154;-66
2023/07/22 07:58:53;;;;;;;6.95;2.70;;;;;;;28.96;100.00;101123.78;2532989;23;20146;-65
2023/07/22 07:59:53;;;;;;;8.23;2.30;;;;;;;29.47;100.00;101182.16;2532725;23;20596;-66
2023/07/22 08:00:54;;;;;;;5.13;2.80;;;;;;;29.35;100.00;101167.38;2520157;23;20508;-65
2023/07/22 08:01:54;;;;;;;6.57;2.17;;;;;;;29.50;100.00;101181.06;2518251;23;20625;-65
2023/07/22 08:02:55;;;;;;;5.93;2.45;;;;;;;29.54;100.00;101184.38;2531147;23;20568;-66
2023/07/22 08:03:55;;;;;;;6.45;2.33;;;;;;;29.13;100.00;101118.53;2532315;23;20193;-66
2023/07/22 08:04:56;;;;;;;7.45;2.55;;;;;;;29.38;100.00;101151.97;2532427;23;20238;-66
2023/07/22 08:05:56;;;;;;;6.82;2.40;;;;;;;29.61;100.00;101178.00;2532835;23;20202;-65
2023/07/22 08:06:57;;;;;;;8.63;2.60;;;;;;;29.63;100.00;101179.00;2531855;23;20596;-66
2023/07/22 08:07:57;;;;;;;8.25;2.72;;;;;;;29.66;100.00;101174.28;2531840;23;20174;-65
2023/07/22 08:08:58;;;;;;;8.07;2.72;;;;;;;29.68;100.00;101169.53;2532430;23;20150;-66
2023/07/22 08:09:59;;;;;;;4.47;2.10;;;;;;;29.65;100.00;101167.03;2532493;23;20376;-65
2023/07/22 08:11:14;;;;;;;8.52;2.70;;;;;;;29.80;100.00;101173.72;2532827;23;20496;-65
2023/07/22 08:12:15;;;;;;;5.88;2.50;;;;;;;29.83;100.00;101172.59;2532604;23;20150;-66
2023/07/22 08:13:15;;;;;;;5.80;2.55;;;;;;;29.53;100.00;101122.88;2532610;23;20233;-65
2023/07/22 08:14:16;;;;;;;7.05;2.83;;;;;;;29.22;100.00;101095.25;2532420;23;20515;-65
2023/07/22 08:15:17;;;;;;;4.93;2.20;;;;;;;29.87;100.00;101181.59;2532783;23;20213;-65
2023/07/22 08:16:17;;;;;;;5.70;2.28;;;;;;;29.94;100.00;101183.00;2532487;23;20597;-65
2023/07/22 08:17:18;;;;;;;7.38;2.42;;;;;;;29.72;100.00;101160.63;2532847;23;20150;-66
2023/07/22 08:18:18;;;;;;;7.40;2.60;;;;;;;29.90;100.00;101194.75;2532725;23;20182;-65
2023/07/22 08:19:19;;;;;;;4.40;2.22;;;;;;;29.64;100.00;101156.94;2532836;23;20151;-65
2023/07/22 08:20:19;;;;;;;5.47;2.33;;;;;;;29.84;100.00;101193.38;2533245;23;20150;-65
2023/07/22 08:21:19;;;;;;;5.40;2.42;;;;;;;29.74;100.00;101198.00;2533283;23;20210;-65
2023/07/22 08:22:20;;;;;;;6.35;2.38;;;;;;;29.61;100.00;101186.59;2533197;23;20604;-66
2023/07/22 08:23:20;;;;;;;7.93;2.30;;;;;;;29.67;100.00;101187.22;2532678;23;20165;-65
2023/07/22 08:24:21;;;;;;;6.75;2.08;;;;;;;29.66;100.00;101183.63;2532247;23;20242;-65
2023/07/22 08:25:22;;;;;;;4.57;2.20;;;;;;;29.73;100.00;101180.06;2532388;23;20154;-66
2023/07/22 08:26:22;;;;;;;7.35;2.28;;;;;;;29.79;100.00;101186.44;2532322;23;20350;-64
2023/07/22 08:27:24;;;;;;;6.45;1.92;;;;;;;29.23;100.00;101125.31;2532558;23;20531;-65
2023/07/22 08:28:24;;;;;;;8.23;2.40;;;;;;;29.37;100.00;101149.69;2519460;23;20162;-65
2023/07/22 08:29:25;;;;;;;6.05;2.22;;;;;;;29.66;100.00;101165.69;2519502;23;20612;-65
2023/07/22 08:30:25;;;;;;;8.63;2.08;;;;;;;29.29;100.00;101126.75;2532240;23;20151;-65
2023/07/22 08:31:26;;;;;;;4.93;2.10;;;;;;;29.19;100.00;101093.50;2532188;23;20160;-66
2023/07/22 08:32:26;;;;;;;5.57;2.20;;;;;;;29.85;100.00;101183.47;2532393;23;20157;-65
2023/07/22 08:33:27;;;;;;;5.97;2.70;;;;;;;29.87;100.00;101195.09;2533140;23;20508;-65
2023/07/22 08:34:27;;;;;;;6.32;2.30;;;;;;;29.35;100.00;101120.91;2531741;23;20162;-66
2023/07/22 08:35:28;;;;;;;7.05;2.80;;;;;;;29.87;100.00;101189.38;2532402;23;20209;-65
2023/07/22 08:36:28;;;;;;;7.28;2.75;;;;;;;29.65;100.00;101153.53;2532218;23;20154;-65
2023/07/22 08:37:30;;;;;;;7.78;2.60;;;;;;;29.51;100.00;101151.19;2532246;23;20150;-64
2023/07/22 08:38:31;;;;;;;6.35;2.88;;;;;;;29.74;100.00;101192.28;2532437;23;20164;-65
2023/07/22 08:39:32;;;;;;;4.82;2.50;;;;;;;29.80;100.00;101198.63;2532375;23;20150;-65
2023/07/22 08:40:34;;;;;;;6.28;2.40;;;;;;;29.74;100.00;101195.88;2531900;23;20217;-65
2023/07/22 08:41:35;;;;;;;6.03;2.47;;;;;;;29.67;100.00;101190.88;2532717;23;20158;-65
2023/07/22 08:42:37;;;;;;;6.65;2.60;;;;;;;29.69;100.00;101193.91;2531665;23;20154;-65
2023/07/22 08:43:40;;;;;;;8.55;2.42;;;;;;;29.52;100.00;101147.00;2531895;23;20177;-66
2023/07/22 08:44:43;;;;;;;7.25;2.55;;;;;;;29.77;100.00;101191.16;2531695;23;20154;-64
2023/07/22 08:45:44;;;;;;;6.00;2.90;;;;;;;29.75;100.00;101193.81;2532247;23;20158;-65
2023/07/22 08:46:46;;;;;;;6.00;2.60;;;;;;;29.86;100.00;101194.34;2531525;23;20213;-65
2023/07/22 08:47:50;;;;;;;6.57;2.58;;;;;;;29.75;100.00;101168.88;2531468;23;20158;-66
2023/07/22 08:48:53;;;;;;;6.88;2.50;;;;;;;29.95;100.00;101202.44;2531748;23;20476;-65
2023/07/22 08:50:01;;;;;;;5.90;2.30;;;;;;;29.97;100.00;101205.53;2531711;23;20177;-65
2023/07/22 08:51:10;;;;;;;7.45;2.65;;;;;;;29.91;100.00;101190.59;2532489;23;20149;-66
2023/07/22 08:52:12;;;;;;;5.75;2.40;;;;;;;29.62;100.00;101182.41;2519096;23;20199;-65
2023/07/22 08:53:13;;;;;;;5.85;2.42;;;;;;;29.79;100.00;101192.16;2519245;23;20154;-64
2023/07/22 08:54:14;;;;;;;6.55;2.30;;;;;;;29.45;100.00;101139.91;2532327;23;20182;-65
2023/07/22 08:55:15;;;;;;;7.38;2.60;;;;;;;29.40;100.00;101157.16;2519215;23;20258;-64
2023/07/22 08:56:16;;;;;;;5.65;2.38;;;;;;;29.80;100.00;101207.22;2519323;23;20151;-65
2023/07/22 08:57:17;;;;;;;6.65;2.38;;;;;;;29.73;100.00;101205.03;2532589;23;20511;-64
2023/07/22 08:58:18;;;;;;;8.13;2.85;;;;;;;29.60;100.00;101179.34;2532424;23;20162;-64
2023/07/22 08:59:19;;;;;;;6.75;2.63;;;;;;;29.85;100.00;101204.25;2532410;23;20181;-64
2023/07/22 09:00:19;;;;;;;5.28;2.30;;;;;;;29.85;100.00;101198.53;2532445;23;20217;-64
2023/07/22 09:01:20;;;;;;;6.50;2.50;;;;;;;29.93;100.00;101207.94;2532735;23;20154;-65
2023/07/22 09:02:21;;;;;;;8.15;2.72;;;;;;;29.48;100.00;101129.47;2532475;23;20157;-65
2023/07/22 09:03:22;;;;;;;7.03;2.20;;;;;;;30.02;100.00;101206.72;2532405;23;20161;-65
2023/07/22 09:04:22;;;;;;;7.28;2.63;;;;;;;30.09;100.00;101209.66;2532484;23;20150;-65
2023/07/22 09:05:23;;;;;;;8.60;2.88;;;;;;;29.78;100.00;101155.59;2532682;23;20162;-65
2023/07/22 09:06:23;;;;;;;8.27;2.88;;;;;;;30.22;100.00;101209.66;2532465;23;20209;-65
2023/07/22 09:07:24;;;;;;;5.25;2.28;;;;;;;30.22;100.00;101220.31;2531707;23;20225;-65
2023/07/22 09:08:25;;;;;;;6.38;2.53;;;;;;;30.27;100.00;101223.03;2531241;23;20151;-65
2023/07/22 09:09:25;;;;;;;8.95;2.72;;;;;;;29.71;100.00;101124.81;2532008;23;20544;-65
2023/07/22 09:10:27;;;;;;;6.93;2.20;;;;;;;30.30;100.00;101209.72;2531614;23;20158;-65
2023/07/22 09:11:28;;;;;;;7.70;2.80;;;;;;;30.46;100.00;101225.72;2532395;23;20150;-65
2023/07/22 09:12:29;;;;;;;6.28;2.30;;;;;;;30.52;100.00;101226.34;2532683;23;20150;-65
2023/07/22 09:13:30;;;;;;;6.32;2.33;;;;;;;30.53;100.00;101214.34;2532304;23;20163;-65
2023/07/22 09:14:33;;;;;;;8.98;2.63;;;;;;;30.53;100.00;101213.56;2531026;23;20193;-65
2023/07/22 09:15:36;;;;;;;6.53;2.45;;;;;;;30.27;100.00;101191.59;2532617;23;20620;-65
2023/07/22 09:16:37;;;;;;;5.97;2.50;;;;;;;30.01;100.00;101150.88;2532526;23;20171;-65
2023/07/22 09:17:41;;;;;;;4.90;2.30;;;;;;;30.40;100.00;101225.09;2532317;23;20163;-64
2023/07/22 09:18:42;;;;;;;4.95;2.30;;;;;;;30.43;100.00;101230.47;2519338;23;20162;-65
2023/07/22 09:19:42;;;;;;;5.85;2.35;;;;;;;30.45;100.00;101224.94;2519825;23;20241;-65
2023/07/22 09:20:43;;;;;;;6.93;2.75;;;;;;;30.34;100.00;101216.63;2532644;23;20150;-65
2023/07/22 09:21:44;;;;;;;5.82;2.20;;;;;;;29.93;100.00;101133.66;2531693;23;20237;-65
2023/07/22 09:22:46;;;;;;;8.63;3.03;;;;;;;30.37;100.00;101206.16;2519335;23;20246;-64
2023/07/22 09:23:47;;;;;;;9.25;2.97;;;;;;;30.32;100.00;101205.00;2519796;23;20230;-65
2023/07/22 09:24:47;;;;;;;8.18;2.75;;;;;;;29.97;100.00;101139.78;2530532;23;20155;-65
2023/07/22 09:25:47;;;;;;;7.18;2.58;;;;;;;30.30;100.00;101198.28;2532372;23;20147;-65
2023/07/22 09:26:48;;;;;;;7.20;2.38;;;;;;;30.38;100.00;101201.97;2531401;23;20177;-65
2023/07/22 09:27:50;;;;;;;6.53;2.40;;;;;;;30.37;100.00;101180.44;2518717;23;20158;-65
2023/07/22 09:29:01;;;;;;;5.13;2.30;;;;;;;30.36;100.00;101188.25;2519861;23;20513;-66
2023/07/22 09:30:01;;;;;;;4.50;2.20;;;;;;;30.38;100.00;101191.31;2530540;23;20243;-70
2023/07/22 09:31:03;;;;;;;6.22;2.40;;;;;;;30.47;100.00;101196.56;2530711;23;20250;-69
2023/07/22 09:32:04;;;;;;;7.38;2.33;;;;;;;30.45;100.00;101189.88;2515999;23;20403;-70
2023/07/22 09:33:06;;;;;;;6.22;2.33;;;;;;;30.05;100.00;101154.16;2517579;23;20155;-70
2023/07/22 09:34:10;;;;;;;8.68;2.67;;;;;;;30.21;100.00;101165.25;2516792;23;20163;-70
2023/07/22 09:35:11;;;;;;;5.80;2.40;;;;;;;30.23;100.00;101154.00;2517504;23;20198;-70
2023/07/22 09:36:12;;;;;;;9.57;2.70;;;;;;;30.35;100.00;101148.78;2529179;23;20229;-70
2023/07/22 09:37:12;;;;;;;10.73;2.90;;;;;;;30.74;100.00;101206.56;2528613;23;20576;-70
2023/07/22 09:38:15;;;;;;;5.13;2.40;;;;;;;30.80;100.00;101206.41;2529595;23;20189;-70
2023/07/22 09:39:15;;;;;;;6.95;2.70;;;;;;;30.20;100.00;101123.66;2530396;23;20159;-69
2023/07/22 09:40:19;;;;;;;4.47;2.00;;;;;;;30.69;100.00;101204.63;2530283;23;20237;-70
2023/07/22 09:41:20;;;;;;;8.48;2.58;;;;;;;30.64;100.00;101199.75;2531053;23;20161;-70
2023/07/22 09:42:25;;;;;;;8.38;2.50;;;;;;;30.63;100.00;101203.19;2530784;23;20217;-69
2023/07/22 09:43:26;;;;;;;7.10;2.60;;;;;;;30.48;100.00;101154.41;2529253;23;20509;-69
2023/07/22 09:44:32;;;;;;;4.65;1.98;;;;;;;30.79;100.00;101208.50;2529498;23;20151;-70
2023/07/22 09:45:32;;;;;;;9.55;2.47;;;;;;;30.79;100.00;101184.84;2530839;23;20498;-70
2023/07/22 09:46:33;;;;;;;5.75;2.22;;;;;;;30.77;100.00;101191.13;2517833;23;20167;-70
2023/07/22 09:47:42;;;;;;;7.90;2.55;;;;;;;30.68;100.00;101180.19;2517396;23;20163;-70
2023/07/22 09:48:44;;;;;;;8.23;2.38;;;;;;;30.67;100.00;101150.06;2530554;23;20155;-70
2023/07/22 09:49:45;;;;;;;7.70;2.55;;;;;;;30.85;100.00;101194.81;2530602;23;20234;-69
2023/07/22 09:50:46;;;;;;;5.10;2.28;;;;;;;30.92;100.00;101191.25;2530654;23;20162;-70
2023/07/22 09:51:46;;;;;;;7.85;2.55;;;;;;;30.81;100.00;101165.03;2530739;23;20154;-69
2023/07/22 09:52:49;;;;;;;6.85;2.95;;;;;;;30.95;100.00;101187.28;2529827;23;20225;-69
2023/07/22 09:54:00;;;;;;;6.10;2.33;;;;;;;31.03;100.00;101182.38;2530300;23;20198;-70
2023/07/22 09:55:01;;;;;;;6.45;2.15;;;;;;;31.06;100.00;101186.97;2530246;23;20141;-70
2023/07/22 09:56:04;;;;;;;8.43;2.70;;;;;;;31.00;100.00;101192.06;2530032;23;20185;-70
2023/07/22 09:57:06;;;;;;;8.18;2.42;;;;;;;30.94;100.00;101185.75;2530313;23;20209;-69
2023/07/22 09:58:09;;;;;;;5.57;2.63;;;;;;;31.02;100.00;101191.53;2528633;23;20162;-70
2023/07/22 09:59:10;;;;;;;7.22;2.72;;;;;;;30.95;100.00;101169.31;2528642;23;20635;-70
2023/07/22 10:00:14;;;;;;;5.95;2.20;;;;;;;30.92;100.00;101181.91;2527055;23;20158;-70
2023/07/22 10:01:19;;;;;;;8.07;2.65;;;;;;;30.95;100.00;101183.63;2530692;23;20180;-70
2023/07/22 10:02:22;;;;;;;6.95;2.50;;;;;;;30.94;100.00;101190.69;2517676;23;20161;-69
2023/07/22 10:03:28;;;;;;;6.43;2.38;;;;;;;31.00;100.00;101182.72;2514645;23;20335;-69
2023/07/22 10:04:33;;;;;;;5.57;2.38;;;;;;;31.01;100.00;101179.28;2527866;23;20153;-70
2023/07/22 10:05:36;;;;;;;6.35;2.80;;;;;;;31.04;100.00;101174.53;2529004;23;20161;-69
2023/07/22 10:06:38;;;;;;;6.55;2.40;;;;;;;31.00;100.00;101171.25;2529715;23;20151;-70
2023/07/22 10:07:45;;;;;;;6.85;2.42;;;;;;;30.98;100.00;101168.22;2529442;23;20622;-70
2023/07/22 10:08:47;;;;;;;9.30;2.60;;;;;;;30.77;100.00;101141.72;2527823;23;20389;-70
2023/07/22 10:09:49;;;;;;;12.32;2.70;;;;;;;31.12;100.00;101195.41;2529944;23;20510;-70
2023/07/22 10:10:53;;;;;;;8.18;3.13;;;;;;;31.12;100.00;101181.09;2530059;23;20151;-70
2023/07/22 10:11:53;;;;;;;6.85;2.90;;;;;;;30.90;100.00;101130.94;2530313;23;20154;-70
2023/07/22 10:12:55;;;;;;;6.45;2.38;;;;;;;31.16;100.00;101176.53;2517331;23;20242;-70
2023/07/22 10:13:55;;;;;;;5.57;2.50;;;;;;;31.43;100.00;101177.84;2516470;23;20153;-70
2023/07/22 10:14:57;;;;;;;6.05;2.58;;;;;;;31.28;100.00;101140.56;2530111;23;20174;-70
2023/07/22 10:15:59;;;;;;;7.35;2.45;;;;;;;31.62;100.00;101180.44;2527301;23;20178;-70
2023/07/22 10:17:00;;;;;;;6.90;2.40;;;;;;;31.65;100.00;101179.31;2529676;23;20614;-70
2023/07/22 10:18:02;;;;;;;6.15;2.60;;;;;;;31.79;100.00;101186.47;2513756;23;20533;-70
2023/07/22 10:19:04;;;;;;;7.95;2.60;;;;;;;31.44;100.00;101147.13;2516567;23;20147;-70
2023/07/22 10:20:07;;;;;;;6.97;2.70;;;;;;;31.42;100.00;101141.22;2528043;23;20496;-69
2023/07/22 10:21:08;;;;;;;8.90;2.38;;;;;;;31.59;100.00;101167.25;2530049;23;20830;-70
2023/07/22 10:22:10;;;;;;;8.65;2.47;;;;;;;31.77;100.00;101192.78;2530521;23;20155;-70
2023/07/22 10:23:14;;;;;;;5.45;2.50;;;;;;;31.78;100.00;101182.09;2529677;23;20749;-70
2023/07/22 10:24:14;;;;;;;6.32;2.42;;;;;;;31.73;100.00;101183.00;2530323;23;20213;-70
2023/07/22 10:25:16;;;;;;;7.57;2.88;;;;;;;31.84;100.00;101183.44;2527898;23;20182;-70
2023/07/22 10:26:18;;;;;;;7.35;2.90;;;;;;;32.00;100.00;101175.66;2529700;23;20204;-70
2023/07/22 10:27:19;;;;;;;6.65;2.58;;;;;;;32.08;100.00;101176.44;2529261;23;20150;-70
2023/07/22 10:28:21;;;;;;;6.22;2.53;;;;;;;32.09;100.00;101173.00;2529042;23;20150;-70
2023/07/22 10:29:25;;;;;;;5.47;2.63;;;;;;;31.84;100.00;101160.50;2530415;23;20159;-70
2023/07/22 10:30:25;;;;;;;7.00;2.25;;;;;;;31.99;100.00;101180.59;2530498;23;20256;-70
2023/07/22 10:31:30;;;;;;;11.63;2.42;;;;;;;31.64;100.00;101114.75;2531075;23;20209;-70
2023/07/22 10:32:41;;;;;;;5.57;2.47;;;;;;;32.21;100.00;101184.88;2530980;23;20147;-70
2023/07/22 10:33:42;;;;;;;7.32;2.88;;;;;;;32.29;100.00;101177.84;2530218;23;20167;-70